sensor_id;sensor_type;location;lat;lon;timestamp;P1;durP1;ratioP1;P2;durP2;ratioP2
55465;SDS011;41329;41.594;23.810;2022-08-04T00:00:12;6.30;;;5.90;;
55465;SDS011;41329;41.594;23.810;2022-08-04T00:11:14;6.22;;;5.93;;
55465;SDS011;41329;41.594;23.810;2022-08-04T00:13:48;6.13;;;5.82;;
55465;SDS011;41329;41.594;23.810;2022-08-04T00:16:19;6.70;;;6.45;;
55465;SDS011;41329;41.594;23.810;2022-08-04T00:18:53;7.47;;;7.13;;
55465;SDS011;41329;41.594;23.810;2022-08-04T00:21:22;6.13;;;5.82;;
55465;SDS011;41329;41.594;23.810;2022-08-04T00:23:49;6.03;;;5.82;;
55465;SDS011;41329;41.594;23.810;2022-08-04T00:26:18;6.55;;;6.25;;
55465;SDS011;41329;41.594;23.810;2022-08-04T00:28:44;6.32;;;5.93;;
55465;SDS011;41329;41.594;23.810;2022-08-04T00:31:12;6.07;;;5.72;;
55465;SDS011;41329;41.594;23.810;2022-08-04T00:33:39;5.97;;;5.68;;
55465;SDS011;41329;41.594;23.810;2022-08-04T00:36:10;5.82;;;5.63;;
55465;SDS011;41329;41.594;23.810;2022-08-04T00:38:35;5.85;;;5.60;;
55465;SDS011;41329;41.594;23.810;2022-08-04T00:41:21;6.22;;;5.93;;
55465;SDS011;41329;41.594;23.810;2022-08-04T00:44:11;6.60;;;6.22;;
55465;SDS011;41329;41.594;23.810;2022-08-04T00:57:50;6.40;;;5.90;;
55465;SDS011;41329;41.594;23.810;2022-08-04T01:00:18;6.00;;;5.70;;
55465;SDS011;41329;41.594;23.810;2022-08-04T01:05:43;5.00;;;4.80;;
55465;SDS011;41329;41.594;23.810;2022-08-04T01:08:26;5.13;;;4.82;;
55465;SDS011;41329;41.594;23.810;2022-08-04T01:13:49;5.65;;;5.35;;
55465;SDS011;41329;41.594;23.810;2022-08-04T01:16:17;4.82;;;4.63;;
55465;SDS011;41329;41.594;23.810;2022-08-04T01:19:07;5.07;;;4.82;;
55465;SDS011;41329;41.594;23.810;2022-08-04T01:30:21;6.50;;;6.20;;
55465;SDS011;41329;41.594;23.810;2022-08-04T01:32:56;7.05;;;6.50;;
55465;SDS011;41329;41.594;23.810;2022-08-04T01:35:42;5.63;;;5.32;;
55465;SDS011;41329;41.594;23.810;2022-08-04T01:38:16;5.82;;;5.43;;
55465;SDS011;41329;41.594;23.810;2022-08-04T01:40:42;5.75;;;5.45;;
55465;SDS011;41329;41.594;23.810;2022-08-04T01:43:08;5.20;;;5.00;;
55465;SDS011;41329;41.594;23.810;2022-08-04T01:45:35;4.80;;;4.60;;
55465;SDS011;41329;41.594;23.810;2022-08-04T01:48:02;5.13;;;4.82;;
55465;SDS011;41329;41.594;23.810;2022-08-04T01:50:31;4.97;;;4.68;;
55465;SDS011;41329;41.594;23.810;2022-08-04T01:52:59;5.63;;;5.43;;
55465;SDS011;41329;41.594;23.810;2022-08-04T01:55:26;5.70;;;5.40;;
55465;SDS011;41329;41.594;23.810;2022-08-04T01:57:53;6.07;;;5.75;;
55465;SDS011;41329;41.594;23.810;2022-08-04T02:00:26;9.30;;;8.70;;
55465;SDS011;41329;41.594;23.810;2022-08-04T02:02:53;8.57;;;8.18;;
55465;SDS011;41329;41.594;23.810;2022-08-04T02:05:21;10.10;;;9.30;;
55465;SDS011;41329;41.594;23.810;2022-08-04T02:08:03;8.15;;;7.75;;
55465;SDS011;41329;41.594;23.810;2022-08-04T02:10:32;7.43;;;6.80;;
55465;SDS011;41329;41.594;23.810;2022-08-04T02:18:20;6.82;;;6.53;;
55465;SDS011;41329;41.594;23.810;2022-08-04T02:20:48;8.30;;;7.88;;
55465;SDS011;41329;41.594;23.810;2022-08-04T02:23:34;7.70;;;7.20;;
55465;SDS011;41329;41.594;23.810;2022-08-04T02:26:01;7.72;;;7.38;;
55465;SDS011;41329;41.594;23.810;2022-08-04T02:28:37;7.30;;;6.93;;
55465;SDS011;41329;41.594;23.810;2022-08-04T02:33:55;7.28;;;6.78;;
55465;SDS011;41329;41.594;23.810;2022-08-04T02:36:41;7.03;;;6.68;;
55465;SDS011;41329;41.594;23.810;2022-08-04T02:39:08;7.50;;;7.15;;
55465;SDS011;41329;41.594;23.810;2022-08-04T02:41:36;7.90;;;7.60;;
55465;SDS011;41329;41.594;23.810;2022-08-04T02:44:06;7.05;;;6.75;;
55465;SDS011;41329;41.594;23.810;2022-08-04T02:46:33;7.75;;;7.35;;
55465;SDS011;41329;41.594;23.810;2022-08-04T02:49:04;7.15;;;6.85;;
55465;SDS011;41329;41.594;23.810;2022-08-04T02:51:33;7.57;;;7.18;;
55465;SDS011;41329;41.594;23.810;2022-08-04T02:54:04;6.93;;;6.47;;
55465;SDS011;41329;41.594;23.810;2022-08-04T02:56:32;8.00;;;7.45;;
55465;SDS011;41329;41.594;23.810;2022-08-04T03:01:32;8.18;;;7.78;;
55465;SDS011;41329;41.594;23.810;2022-08-04T03:12:38;6.78;;;6.47;;
55465;SDS011;41329;41.594;23.810;2022-08-04T03:54:51;6.25;;;5.85;;
55465;SDS011;41329;41.594;23.810;2022-08-04T04:00:14;6.70;;;6.13;;
55465;SDS011;41329;41.594;23.810;2022-08-04T04:21:19;7.38;;;6.97;;
55465;SDS011;41329;41.594;23.810;2022-08-04T04:26:59;10.47;;;9.90;;
55465;SDS011;41329;41.594;23.810;2022-08-04T04:30:02;12.27;;;11.68;;
55465;SDS011;41329;41.594;23.810;2022-08-04T04:35:32;11.88;;;11.27;;
55465;SDS011;41329;41.594;23.810;2022-08-04T04:38:18;10.60;;;9.98;;
55465;SDS011;41329;41.594;23.810;2022-08-04T04:47:38;8.25;;;7.80;;
55465;SDS011;41329;41.594;23.810;2022-08-04T04:50:02;8.57;;;8.18;;
55465;SDS011;41329;41.594;23.810;2022-08-04T04:52:40;8.90;;;8.25;;
55465;SDS011;41329;41.594;23.810;2022-08-04T04:55:20;8.20;;;7.70;;
55465;SDS011;41329;41.594;23.810;2022-08-04T04:57:49;7.45;;;7.05;;
55465;SDS011;41329;41.594;23.810;2022-08-04T05:00:16;7.57;;;7.28;;
55465;SDS011;41329;41.594;23.810;2022-08-04T05:02:58;7.57;;;7.25;;
55465;SDS011;41329;41.594;23.810;2022-08-04T05:05:38;7.35;;;7.05;;
55465;SDS011;41329;41.594;23.810;2022-08-04T05:16:46;9.65;;;9.25;;
55465;SDS011;41329;41.594;23.810;2022-08-04T05:22:20;8.82;;;8.43;;
55465;SDS011;41329;41.594;23.810;2022-08-04T05:24:51;7.70;;;7.40;;
55465;SDS011;41329;41.594;23.810;2022-08-04T05:27:27;8.43;;;7.93;;
55465;SDS011;41329;41.594;23.810;2022-08-04T05:30:02;7.30;;;7.00;;
55465;SDS011;41329;41.594;23.810;2022-08-04T05:32:31;7.97;;;7.68;;
55465;SDS011;41329;41.594;23.810;2022-08-04T05:35:04;8.20;;;7.80;;
55465;SDS011;41329;41.594;23.810;2022-08-04T05:37:34;7.65;;;7.25;;
55465;SDS011;41329;41.594;23.810;2022-08-04T05:42:31;8.48;;;8.05;;
55465;SDS011;41329;41.594;23.810;2022-08-04T05:44:59;8.35;;;8.05;;
55465;SDS011;41329;41.594;23.810;2022-08-04T05:47:27;9.05;;;8.52;;
55465;SDS011;41329;41.594;23.810;2022-08-04T05:49:55;8.52;;;8.13;;
55465;SDS011;41329;41.594;23.810;2022-08-04T05:52:21;9.32;;;8.75;;
55465;SDS011;41329;41.594;23.810;2022-08-04T05:54:49;7.90;;;7.60;;
55465;SDS011;41329;41.594;23.810;2022-08-04T05:57:16;10.23;;;9.70;;
55465;SDS011;41329;41.594;23.810;2022-08-04T05:59:43;9.93;;;9.23;;
55465;SDS011;41329;41.594;23.810;2022-08-04T06:02:11;14.95;;;14.05;;
55465;SDS011;41329;41.594;23.810;2022-08-04T06:04:40;14.50;;;13.80;;
55465;SDS011;41329;41.594;23.810;2022-08-04T06:07:07;13.77;;;12.85;;
55465;SDS011;41329;41.594;23.810;2022-08-04T06:09:35;13.43;;;12.55;;
55465;SDS011;41329;41.594;23.810;2022-08-04T06:12:02;12.07;;;11.10;;
55465;SDS011;41329;41.594;23.810;2022-08-04T06:14:32;10.68;;;10.18;;
55465;SDS011;41329;41.594;23.810;2022-08-04T06:17:05;10.68;;;10.07;;
55465;SDS011;41329;41.594;23.810;2022-08-04T06:19:32;10.40;;;9.90;;
55465;SDS011;41329;41.594;23.810;2022-08-04T06:22:01;10.25;;;9.63;;
55465;SDS011;41329;41.594;23.810;2022-08-04T06:24:29;9.20;;;8.70;;
55465;SDS011;41329;41.594;23.810;2022-08-04T06:26:56;10.45;;;9.73;;
55465;SDS011;41329;41.594;23.810;2022-08-04T06:29:23;10.40;;;9.57;;
55465;SDS011;41329;41.594;23.810;2022-08-04T06:32:04;9.00;;;8.55;;
55465;SDS011;41329;41.594;23.810;2022-08-04T06:35:01;9.32;;;7.90;;
55465;SDS011;41329;41.594;23.810;2022-08-04T06:37:30;8.55;;;8.15;;
55465;SDS011;41329;41.594;23.810;2022-08-04T06:39:56;8.63;;;7.90;;
55465;SDS011;41329;41.594;23.810;2022-08-04T06:42:23;7.97;;;7.57;;
55465;SDS011;41329;41.594;23.810;2022-08-04T06:44:52;8.13;;;7.55;;
55465;SDS011;41329;41.594;23.810;2022-08-04T06:47:21;6.93;;;6.63;;
55465;SDS011;41329;41.594;23.810;2022-08-04T06:49:49;6.93;;;6.43;;
55465;SDS011;41329;41.594;23.810;2022-08-04T06:52:17;6.47;;;6.18;;
55465;SDS011;41329;41.594;23.810;2022-08-04T06:54:44;6.40;;;6.10;;
55465;SDS011;41329;41.594;23.810;2022-08-04T06:57:16;6.63;;;6.32;;
55465;SDS011;41329;41.594;23.810;2022-08-04T06:59:48;6.07;;;5.68;;
55465;SDS011;41329;41.594;23.810;2022-08-04T07:02:26;6.32;;;6.03;;
55465;SDS011;41329;41.594;23.810;2022-08-04T07:04:54;5.75;;;5.45;;
55465;SDS011;41329;41.594;23.810;2022-08-04T07:07:20;6.03;;;5.80;;
55465;SDS011;41329;41.594;23.810;2022-08-04T07:09:48;5.85;;;5.55;;
55465;SDS011;41329;41.594;23.810;2022-08-04T07:12:13;5.80;;;5.50;;
55465;SDS011;41329;41.594;23.810;2022-08-04T07:14:44;5.78;;;5.47;;
55465;SDS011;41329;41.594;23.810;2022-08-04T07:17:10;5.40;;;5.10;;
55465;SDS011;41329;41.594;23.810;2022-08-04T07:19:39;5.30;;;5.03;;
55465;SDS011;41329;41.594;23.810;2022-08-04T07:22:06;5.65;;;5.35;;
55465;SDS011;41329;41.594;23.810;2022-08-04T07:24:33;5.05;;;4.85;;
55465;SDS011;41329;41.594;23.810;2022-08-04T07:27:01;5.15;;;4.75;;
55465;SDS011;41329;41.594;23.810;2022-08-04T07:29:28;5.47;;;5.07;;
55465;SDS011;41329;41.594;23.810;2022-08-04T07:31:55;5.47;;;5.18;;
55465;SDS011;41329;41.594;23.810;2022-08-04T07:34:22;5.03;;;4.72;;
55465;SDS011;41329;41.594;23.810;2022-08-04T07:36:52;4.80;;;4.43;;
55465;SDS011;41329;41.594;23.810;2022-08-04T07:39:20;4.82;;;4.43;;
55465;SDS011;41329;41.594;23.810;2022-08-04T07:41:46;4.68;;;4.47;;
55465;SDS011;41329;41.594;23.810;2022-08-04T07:44:13;5.05;;;4.78;;
55465;SDS011;41329;41.594;23.810;2022-08-04T07:46:39;5.20;;;4.85;;
55465;SDS011;41329;41.594;23.810;2022-08-04T07:49:05;4.88;;;4.57;;
55465;SDS011;41329;41.594;23.810;2022-08-04T07:51:32;5.38;;;5.07;;
55465;SDS011;41329;41.594;23.810;2022-08-04T07:53:59;4.47;;;4.20;;
55465;SDS011;41329;41.594;23.810;2022-08-04T07:56:27;5.38;;;5.07;;
55465;SDS011;41329;41.594;23.810;2022-08-04T07:58:54;5.00;;;4.60;;
55465;SDS011;41329;41.594;23.810;2022-08-04T08:01:20;5.40;;;5.10;;
55465;SDS011;41329;41.594;23.810;2022-08-04T08:03:46;5.65;;;5.35;;
55465;SDS011;41329;41.594;23.810;2022-08-04T08:06:13;5.93;;;5.63;;
55465;SDS011;41329;41.594;23.810;2022-08-04T08:08:39;5.50;;;5.30;;
55465;SDS011;41329;41.594;23.810;2022-08-04T08:11:05;5.75;;;5.35;;
55465;SDS011;41329;41.594;23.810;2022-08-04T08:13:32;4.97;;;4.78;;
55465;SDS011;41329;41.594;23.810;2022-08-04T08:15:58;5.40;;;5.10;;
55465;SDS011;41329;41.594;23.810;2022-08-04T08:18:23;4.75;;;4.55;;
55465;SDS011;41329;41.594;23.810;2022-08-04T08:20:49;5.85;;;5.60;;
55465;SDS011;41329;41.594;23.810;2022-08-04T08:23:17;7.05;;;6.70;;
55465;SDS011;41329;41.594;23.810;2022-08-04T08:25:42;6.00;;;5.60;;
55465;SDS011;41329;41.594;23.810;2022-08-04T08:28:08;4.80;;;4.53;;
55465;SDS011;41329;41.594;23.810;2022-08-04T08:30:34;4.57;;;4.25;;
55465;SDS011;41329;41.594;23.810;2022-08-04T08:33:00;6.28;;;4.72;;
55465;SDS011;41329;41.594;23.810;2022-08-04T08:35:31;4.18;;;3.97;;
55465;SDS011;41329;41.594;23.810;2022-08-04T08:38:05;4.63;;;4.25;;
55465;SDS011;41329;41.594;23.810;2022-08-04T08:51:52;5.13;;;4.70;;
55465;SDS011;41329;41.594;23.810;2022-08-04T09:14:56;2.92;;;2.72;;
55465;SDS011;41329;41.594;23.810;2022-08-04T09:17:34;2.83;;;2.63;;
55465;SDS011;41329;41.594;23.810;2022-08-04T09:20:07;2.83;;;2.72;;
55465;SDS011;41329;41.594;23.810;2022-08-04T09:22:50;2.65;;;2.42;;
55465;SDS011;41329;41.594;23.810;2022-08-04T09:25:25;2.67;;;2.58;;
55465;SDS011;41329;41.594;23.810;2022-08-04T09:27:56;2.92;;;2.60;;
55465;SDS011;41329;41.594;23.810;2022-08-04T09:30:39;2.38;;;2.28;;
55465;SDS011;41329;41.594;23.810;2022-08-04T09:36:02;2.00;;;1.90;;
55465;SDS011;41329;41.594;23.810;2022-08-04T09:49:22;1.85;;;1.75;;
55465;SDS011;41329;41.594;23.810;2022-08-04T10:00:09;1.83;;;1.67;;
55465;SDS011;41329;41.594;23.810;2022-08-04T10:02:43;1.70;;;1.60;;
55465;SDS011;41329;41.594;23.810;2022-08-04T10:05:16;1.90;;;1.80;;
55465;SDS011;41329;41.594;23.810;2022-08-04T10:10:50;2.13;;;1.48;;
55465;SDS011;41329;41.594;23.810;2022-08-04T10:24:33;1.60;;;1.50;;
55465;SDS011;41329;41.594;23.810;2022-08-04T10:30:06;1.75;;;1.65;;
55465;SDS011;41329;41.594;23.810;2022-08-04T10:32:44;1.70;;;1.60;;
55465;SDS011;41329;41.594;23.810;2022-08-04T10:35:22;1.75;;;1.65;;
55465;SDS011;41329;41.594;23.810;2022-08-04T10:40:29;1.65;;;1.55;;
55465;SDS011;41329;41.594;23.810;2022-08-04T10:54:42;1.60;;;1.50;;
55465;SDS011;41329;41.594;23.810;2022-08-04T10:57:25;1.70;;;1.60;;
55465;SDS011;41329;41.594;23.810;2022-08-04T11:00:04;2.33;;;1.65;;
55465;SDS011;41329;41.594;23.810;2022-08-04T11:05:46;1.65;;;1.55;;
55465;SDS011;41329;41.594;23.810;2022-08-04T11:08:15;1.63;;;1.42;;
55465;SDS011;41329;41.594;23.810;2022-08-04T11:14:18;1.60;;;1.50;;
55465;SDS011;41329;41.594;23.810;2022-08-04T11:19:32;1.45;;;1.38;;
55465;SDS011;41329;41.594;23.810;2022-08-04T11:22:07;1.33;;;1.33;;
55465;SDS011;41329;41.594;23.810;2022-08-04T11:27:16;1.85;;;1.40;;
55465;SDS011;41329;41.594;23.810;2022-08-04T11:32:28;1.67;;;1.48;;
55465;SDS011;41329;41.594;23.810;2022-08-04T11:35:09;2.90;;;1.40;;
55465;SDS011;41329;41.594;23.810;2022-08-04T11:37:44;1.80;;;1.40;;
55465;SDS011;41329;41.594;23.810;2022-08-04T11:40:23;1.58;;;1.48;;
55465;SDS011;41329;41.594;23.810;2022-08-04T11:43:00;2.00;;;1.33;;
55465;SDS011;41329;41.594;23.810;2022-08-04T11:45:40;1.50;;;1.40;;
55465;SDS011;41329;41.594;23.810;2022-08-04T11:48:16;1.58;;;1.48;;
55465;SDS011;41329;41.594;23.810;2022-08-04T11:51:09;1.23;;;1.23;;
55465;SDS011;41329;41.594;23.810;2022-08-04T11:53:39;1.77;;;1.25;;
55465;SDS011;41329;41.594;23.810;2022-08-04T11:56:09;1.40;;;1.20;;
55465;SDS011;41329;41.594;23.810;2022-08-04T11:58:39;1.48;;;1.38;;
55465;SDS011;41329;41.594;23.810;2022-08-04T12:12:19;1.63;;;1.23;;
55465;SDS011;41329;41.594;23.810;2022-08-04T12:15:07;1.77;;;1.67;;
55465;SDS011;41329;41.594;23.810;2022-08-04T12:17:53;1.70;;;1.60;;
55465;SDS011;41329;41.594;23.810;2022-08-04T12:20:28;1.48;;;1.35;;
55465;SDS011;41329;41.594;23.810;2022-08-04T12:22:58;2.15;;;1.33;;
55465;SDS011;41329;41.594;23.810;2022-08-04T12:25:26;1.30;;;1.27;;
55465;SDS011;41329;41.594;23.810;2022-08-04T12:27:58;1.50;;;1.50;;
55465;SDS011;41329;41.594;23.810;2022-08-04T12:33:20;1.40;;;1.30;;
55465;SDS011;41329;41.594;23.810;2022-08-04T12:35:57;1.13;;;1.13;;
55465;SDS011;41329;41.594;23.810;2022-08-04T12:38:31;1.70;;;1.60;;
55465;SDS011;41329;41.594;23.810;2022-08-04T12:40:59;1.73;;;1.50;;
55465;SDS011;41329;41.594;23.810;2022-08-04T12:43:38;2.63;;;1.27;;
55465;SDS011;41329;41.594;23.810;2022-08-04T12:46:08;1.40;;;1.30;;
55465;SDS011;41329;41.594;23.810;2022-08-04T12:48:36;1.83;;;1.30;;
55465;SDS011;41329;41.594;23.810;2022-08-04T12:51:03;1.52;;;1.40;;
55465;SDS011;41329;41.594;23.810;2022-08-04T12:53:32;1.65;;;1.55;;
55465;SDS011;41329;41.594;23.810;2022-08-04T12:56:01;1.50;;;1.40;;
55465;SDS011;41329;41.594;23.810;2022-08-04T12:58:28;1.27;;;1.20;;
55465;SDS011;41329;41.594;23.810;2022-08-04T13:00:59;1.60;;;1.50;;
55465;SDS011;41329;41.594;23.810;2022-08-04T13:03:26;1.40;;;1.40;;
55465;SDS011;41329;41.594;23.810;2022-08-04T13:05:54;1.50;;;1.40;;
55465;SDS011;41329;41.594;23.810;2022-08-04T13:08:21;1.45;;;1.35;;
55465;SDS011;41329;41.594;23.810;2022-08-04T13:10:48;4.68;;;1.20;;
55465;SDS011;41329;41.594;23.810;2022-08-04T13:13:17;2.13;;;1.50;;
55465;SDS011;41329;41.594;23.810;2022-08-04T13:15:54;1.55;;;1.45;;
55465;SDS011;41329;41.594;23.810;2022-08-04T13:18:22;1.30;;;1.20;;
55465;SDS011;41329;41.594;23.810;2022-08-04T13:20:50;1.85;;;1.40;;
55465;SDS011;41329;41.594;23.810;2022-08-04T13:23:16;1.60;;;1.50;;
55465;SDS011;41329;41.594;23.810;2022-08-04T13:25:48;3.53;;;1.33;;
55465;SDS011;41329;41.594;23.810;2022-08-04T13:28:19;1.77;;;1.33;;
55465;SDS011;41329;41.594;23.810;2022-08-04T13:30:48;1.80;;;1.35;;
55465;SDS011;41329;41.594;23.810;2022-08-04T13:33:19;1.60;;;1.50;;
55465;SDS011;41329;41.594;23.810;2022-08-04T13:35:51;1.75;;;1.20;;
55465;SDS011;41329;41.594;23.810;2022-08-04T13:38:18;1.63;;;1.20;;
55465;SDS011;41329;41.594;23.810;2022-08-04T13:40:44;1.73;;;1.63;;
55465;SDS011;41329;41.594;23.810;2022-08-04T13:43:12;1.50;;;1.40;;
55465;SDS011;41329;41.594;23.810;2022-08-04T13:45:48;1.67;;;1.58;;
55465;SDS011;41329;41.594;23.810;2022-08-04T13:48:15;2.00;;;1.90;;
55465;SDS011;41329;41.594;23.810;2022-08-04T13:50:45;1.92;;;1.83;;
55465;SDS011;41329;41.594;23.810;2022-08-04T13:53:11;2.33;;;1.70;;
55465;SDS011;41329;41.594;23.810;2022-08-04T13:55:41;3.90;;;1.70;;
55465;SDS011;41329;41.594;23.810;2022-08-04T13:58:13;1.77;;;1.67;;
55465;SDS011;41329;41.594;23.810;2022-08-04T14:00:46;1.50;;;1.42;;
55465;SDS011;41329;41.594;23.810;2022-08-04T14:03:28;1.30;;;1.20;;
55465;SDS011;41329;41.594;23.810;2022-08-04T14:08:52;1.33;;;1.30;;
55465;SDS011;41329;41.594;23.810;2022-08-04T14:13:59;2.45;;;1.33;;
55465;SDS011;41329;41.594;23.810;2022-08-04T14:16:26;2.53;;;1.67;;
55465;SDS011;41329;41.594;23.810;2022-08-04T14:19:00;1.60;;;1.50;;
55465;SDS011;41329;41.594;23.810;2022-08-04T14:21:26;2.70;;;1.55;;
55465;SDS011;41329;41.594;23.810;2022-08-04T14:23:53;1.63;;;1.52;;
55465;SDS011;41329;41.594;23.810;2022-08-04T14:26:27;1.55;;;1.45;;
55465;SDS011;41329;41.594;23.810;2022-08-04T14:29:05;1.85;;;1.75;;
55465;SDS011;41329;41.594;23.810;2022-08-04T14:31:33;1.77;;;1.48;;
55465;SDS011;41329;41.594;23.810;2022-08-04T14:33:59;1.55;;;1.45;;
55465;SDS011;41329;41.594;23.810;2022-08-04T14:36:25;1.65;;;1.55;;
55465;SDS011;41329;41.594;23.810;2022-08-04T14:38:51;1.70;;;1.60;;
55465;SDS011;41329;41.594;23.810;2022-08-04T14:41:26;1.73;;;1.63;;
55465;SDS011;41329;41.594;23.810;2022-08-04T14:43:57;1.70;;;1.60;;
55465;SDS011;41329;41.594;23.810;2022-08-04T14:46:24;1.42;;;1.42;;
55465;SDS011;41329;41.594;23.810;2022-08-04T14:49:10;1.83;;;1.73;;
55465;SDS011;41329;41.594;23.810;2022-08-04T14:51:40;2.92;;;1.50;;
55465;SDS011;41329;41.594;23.810;2022-08-04T14:54:10;2.92;;;1.65;;
55465;SDS011;41329;41.594;23.810;2022-08-04T14:56:38;2.50;;;1.50;;
55465;SDS011;41329;41.594;23.810;2022-08-04T14:59:07;2.15;;;1.65;;
55465;SDS011;41329;41.594;23.810;2022-08-04T15:01:35;1.70;;;1.60;;
55465;SDS011;41329;41.594;23.810;2022-08-04T15:04:03;2.50;;;1.53;;
55465;SDS011;41329;41.594;23.810;2022-08-04T15:06:31;1.50;;;1.40;;
55465;SDS011;41329;41.594;23.810;2022-08-04T15:08:59;1.88;;;1.77;;
55465;SDS011;41329;41.594;23.810;2022-08-04T15:11:33;1.50;;;1.40;;
55465;SDS011;41329;41.594;23.810;2022-08-04T15:13:59;1.40;;;1.25;;
55465;SDS011;41329;41.594;23.810;2022-08-04T15:16:27;1.60;;;1.50;;
55465;SDS011;41329;41.594;23.810;2022-08-04T15:18:54;1.70;;;1.60;;
55465;SDS011;41329;41.594;23.810;2022-08-04T15:21:20;1.55;;;1.50;;
55465;SDS011;41329;41.594;23.810;2022-08-04T15:23:47;1.42;;;1.42;;
55465;SDS011;41329;41.594;23.810;2022-08-04T15:26:15;2.85;;;1.70;;
55465;SDS011;41329;41.594;23.810;2022-08-04T15:28:45;1.73;;;1.63;;
55465;SDS011;41329;41.594;23.810;2022-08-04T15:31:16;1.70;;;1.60;;
55465;SDS011;41329;41.594;23.810;2022-08-04T15:33:43;1.63;;;1.52;;
55465;SDS011;41329;41.594;23.810;2022-08-04T15:39:11;3.10;;;1.30;;
55465;SDS011;41329;41.594;23.810;2022-08-04T15:41:59;1.83;;;1.42;;
55465;SDS011;41329;41.594;23.810;2022-08-04T15:48:10;1.35;;;1.33;;
55465;SDS011;41329;41.594;23.810;2022-08-04T15:53:24;1.70;;;1.60;;
55465;SDS011;41329;41.594;23.810;2022-08-04T15:55:50;1.40;;;1.30;;
55465;SDS011;41329;41.594;23.810;2022-08-04T15:58:17;2.08;;;1.40;;
55465;SDS011;41329;41.594;23.810;2022-08-04T16:05:58;5.07;;;2.22;;
55465;SDS011;41329;41.594;23.810;2022-08-04T16:08:24;1.80;;;1.55;;
55465;SDS011;41329;41.594;23.810;2022-08-04T16:10:50;1.67;;;1.58;;
55465;SDS011;41329;41.594;23.810;2022-08-04T16:13:17;1.65;;;1.55;;
55465;SDS011;41329;41.594;23.810;2022-08-04T16:18:18;3.30;;;1.70;;
55465;SDS011;41329;41.594;23.810;2022-08-04T16:20:56;2.00;;;1.90;;
55465;SDS011;41329;41.594;23.810;2022-08-04T16:32:22;2.80;;;1.67;;
55465;SDS011;41329;41.594;23.810;2022-08-04T16:43:19;3.60;;;2.22;;
55465;SDS011;41329;41.594;23.810;2022-08-04T16:48:16;4.70;;;4.50;;
55465;SDS011;41329;41.594;23.810;2022-08-04T16:51:03;4.45;;;4.25;;
55465;SDS011;41329;41.594;23.810;2022-08-04T16:53:42;2.28;;;2.08;;
55465;SDS011;41329;41.594;23.810;2022-08-04T16:56:10;2.00;;;1.90;;
55465;SDS011;41329;41.594;23.810;2022-08-04T16:58:38;2.05;;;1.95;;
55465;SDS011;41329;41.594;23.810;2022-08-04T17:01:08;4.28;;;2.10;;
55465;SDS011;41329;41.594;23.810;2022-08-04T17:03:38;2.08;;;1.98;;
55465;SDS011;41329;41.594;23.810;2022-08-04T17:06:08;1.92;;;1.52;;
55465;SDS011;41329;41.594;23.810;2022-08-04T17:08:39;4.03;;;1.50;;
55465;SDS011;41329;41.594;23.810;2022-08-04T17:11:13;4.28;;;2.13;;
55465;SDS011;41329;41.594;23.810;2022-08-04T17:13:44;25.17;;;2.60;;
55465;SDS011;41329;41.594;23.810;2022-08-04T17:16:12;2.03;;;1.83;;
55465;SDS011;41329;41.594;23.810;2022-08-04T17:18:40;1.98;;;1.50;;
55465;SDS011;41329;41.594;23.810;2022-08-04T17:21:12;1.50;;;1.50;;
55465;SDS011;41329;41.594;23.810;2022-08-04T17:23:40;1.70;;;1.60;;
55465;SDS011;41329;41.594;23.810;2022-08-04T17:26:10;1.42;;;1.33;;
55465;SDS011;41329;41.594;23.810;2022-08-04T17:28:38;1.60;;;1.50;;
55465;SDS011;41329;41.594;23.810;2022-08-04T17:31:06;1.60;;;1.50;;
55465;SDS011;41329;41.594;23.810;2022-08-04T17:33:34;3.30;;;1.83;;
55465;SDS011;41329;41.594;23.810;2022-08-04T17:36:00;1.60;;;1.50;;
55465;SDS011;41329;41.594;23.810;2022-08-04T17:38:30;9.73;;;2.10;;
55465;SDS011;41329;41.594;23.810;2022-08-04T17:41:06;8.65;;;2.40;;
55465;SDS011;41329;41.594;23.810;2022-08-04T17:48:43;2.20;;;2.00;;
55465;SDS011;41329;41.594;23.810;2022-08-04T17:51:15;1.75;;;1.65;;
55465;SDS011;41329;41.594;23.810;2022-08-04T17:53:42;2.17;;;2.03;;
55465;SDS011;41329;41.594;23.810;2022-08-04T17:59:06;2.72;;;2.58;;
55465;SDS011;41329;41.594;23.810;2022-08-04T18:01:41;4.13;;;2.55;;
55465;SDS011;41329;41.594;23.810;2022-08-04T18:04:23;3.15;;;2.95;;
55465;SDS011;41329;41.594;23.810;2022-08-04T18:07:14;3.65;;;2.80;;
55465;SDS011;41329;41.594;23.810;2022-08-04T18:09:57;3.35;;;3.00;;
55465;SDS011;41329;41.594;23.810;2022-08-04T18:12:29;2.75;;;2.53;;
55465;SDS011;41329;41.594;23.810;2022-08-04T18:14:55;2.78;;;2.58;;
55465;SDS011;41329;41.594;23.810;2022-08-04T18:17:29;2.00;;;1.90;;
55465;SDS011;41329;41.594;23.810;2022-08-04T18:19:58;1.90;;;1.80;;
55465;SDS011;41329;41.594;23.810;2022-08-04T18:22:25;2.03;;;1.92;;
55465;SDS011;41329;41.594;23.810;2022-08-04T18:24:51;2.05;;;1.75;;
55465;SDS011;41329;41.594;23.810;2022-08-04T18:27:17;2.08;;;1.98;;
55465;SDS011;41329;41.594;23.810;2022-08-04T18:29:44;2.53;;;1.77;;
55465;SDS011;41329;41.594;23.810;2022-08-04T18:32:10;2.60;;;2.13;;
55465;SDS011;41329;41.594;23.810;2022-08-04T18:34:36;2.00;;;1.90;;
55465;SDS011;41329;41.594;23.810;2022-08-04T18:37:01;2.22;;;2.13;;
55465;SDS011;41329;41.594;23.810;2022-08-04T18:39:27;2.20;;;2.10;;
55465;SDS011;41329;41.594;23.810;2022-08-04T18:41:54;2.20;;;2.00;;
55465;SDS011;41329;41.594;23.810;2022-08-04T18:44:21;3.10;;;2.17;;
55465;SDS011;41329;41.594;23.810;2022-08-04T18:46:47;2.20;;;2.10;;
55465;SDS011;41329;41.594;23.810;2022-08-04T18:49:12;2.28;;;2.00;;
55465;SDS011;41329;41.594;23.810;2022-08-04T18:51:38;2.45;;;2.30;;
55465;SDS011;41329;41.594;23.810;2022-08-04T18:54:04;2.20;;;2.10;;
55465;SDS011;41329;41.594;23.810;2022-08-04T18:56:30;1.83;;;1.63;;
55465;SDS011;41329;41.594;23.810;2022-08-04T18:58:57;2.53;;;2.03;;
55465;SDS011;41329;41.594;23.810;2022-08-04T19:01:24;2.00;;;1.90;;
55465;SDS011;41329;41.594;23.810;2022-08-04T19:03:49;1.85;;;1.75;;
55465;SDS011;41329;41.594;23.810;2022-08-04T19:06:17;2.08;;;1.98;;
55465;SDS011;41329;41.594;23.810;2022-08-04T19:08:42;2.13;;;2.03;;
55465;SDS011;41329;41.594;23.810;2022-08-04T19:11:08;1.95;;;1.85;;
55465;SDS011;41329;41.594;23.810;2022-08-04T19:13:34;5.63;;;2.30;;
55465;SDS011;41329;41.594;23.810;2022-08-04T19:15:59;1.90;;;1.80;;
55465;SDS011;41329;41.594;23.810;2022-08-04T19:18:25;1.85;;;1.60;;
55465;SDS011;41329;41.594;23.810;2022-08-04T19:20:51;1.85;;;1.75;;
55465;SDS011;41329;41.594;23.810;2022-08-04T19:23:16;1.92;;;1.83;;
55465;SDS011;41329;41.594;23.810;2022-08-04T19:25:42;2.15;;;2.05;;
55465;SDS011;41329;41.594;23.810;2022-08-04T19:28:08;2.13;;;1.92;;
55465;SDS011;41329;41.594;23.810;2022-08-04T19:30:34;1.70;;;1.60;;
55465;SDS011;41329;41.594;23.810;2022-08-04T19:32:59;2.45;;;2.25;;
55465;SDS011;41329;41.594;23.810;2022-08-04T19:35:25;2.53;;;2.20;;
55465;SDS011;41329;41.594;23.810;2022-08-04T19:37:50;3.03;;;2.70;;
55465;SDS011;41329;41.594;23.810;2022-08-04T19:40:16;3.55;;;3.38;;
55465;SDS011;41329;41.594;23.810;2022-08-04T19:42:41;3.25;;;3.03;;
55465;SDS011;41329;41.594;23.810;2022-08-04T19:45:10;3.50;;;3.20;;
55465;SDS011;41329;41.594;23.810;2022-08-04T19:47:36;2.70;;;2.60;;
55465;SDS011;41329;41.594;23.810;2022-08-04T19:50:02;3.13;;;2.83;;
55465;SDS011;41329;41.594;23.810;2022-08-04T19:52:30;2.83;;;2.63;;
55465;SDS011;41329;41.594;23.810;2022-08-04T19:54:55;2.50;;;2.35;;
55465;SDS011;41329;41.594;23.810;2022-08-04T19:57:20;3.00;;;2.75;;